Terminal Aerodrome Forecast
Issued by NWS

Home | Current Version | Previous Version | Text Only | Print | Product List | Glossary On
Versions: 1 2 3 4 5 6 7 8 9 10 11 12 13 14 15 16
000
FTUS45 KABQ 242336
TAFTCC
TAF
KTCC 242336Z 2500/2524 19015G25KT P6SM FEW050
     FM250200 18010KT P6SM SCT035
     FM250900 18005KT P6SM VCSH BKN025
     FM251600 03008KT P6SM VCSH BKN035
     FM252000 05012KT P6SM VCSH OVC020=

USA.gov is the U.S. government's official web portal to all federal, state and local government web resources and services.